sensor_id;sensor_type;location;lat;lon;timestamp;P1;durP1;ratioP1;P2;durP2;ratioP2
40755;SDS011;26461;45.630;9.418;2023-10-19T00:01:27;44.47;;;30.95;;
40755;SDS011;26461;45.630;9.418;2023-10-19T00:04:33;44.58;;;28.85;;
40755;SDS011;26461;45.630;9.418;2023-10-19T00:07:41;38.88;;;29.05;;
40755;SDS011;26461;45.630;9.418;2023-10-19T00:10:51;44.90;;;30.20;;
40755;SDS011;26461;45.630;9.418;2023-10-19T00:14:07;43.30;;;30.55;;
40755;SDS011;26461;45.630;9.418;2023-10-19T00:17:25;37.90;;;28.02;;
40755;SDS011;26461;45.630;9.418;2023-10-19T00:20:32;44.90;;;30.60;;
40755;SDS011;26461;45.630;9.418;2023-10-19T00:23:58;52.70;;;29.85;;
40755;SDS011;26461;45.630;9.418;2023-10-19T00:27:10;44.67;;;29.98;;
40755;SDS011;26461;45.630;9.418;2023-10-19T00:30:26;42.65;;;28.77;;
40755;SDS011;26461;45.630;9.418;2023-10-19T00:33:41;51.33;;;31.92;;
40755;SDS011;26461;45.630;9.418;2023-10-19T00:36:46;44.95;;;32.05;;
40755;SDS011;26461;45.630;9.418;2023-10-19T00:39:53;43.25;;;30.35;;
40755;SDS011;26461;45.630;9.418;2023-10-19T00:43:03;45.75;;;30.67;;
40755;SDS011;26461;45.630;9.418;2023-10-19T00:46:20;42.08;;;29.50;;
40755;SDS011;26461;45.630;9.418;2023-10-19T00:49:26;44.60;;;28.98;;
40755;SDS011;26461;45.630;9.418;2023-10-19T00:52:31;42.50;;;30.30;;
40755;SDS011;26461;45.630;9.418;2023-10-19T00:55:36;45.60;;;30.05;;
40755;SDS011;26461;45.630;9.418;2023-10-19T00:58:42;51.80;;;32.15;;
40755;SDS011;26461;45.630;9.418;2023-10-19T01:01:53;44.17;;;30.48;;
40755;SDS011;26461;45.630;9.418;2023-10-19T01:05:00;45.10;;;30.08;;
40755;SDS011;26461;45.630;9.418;2023-10-19T01:08:23;39.55;;;28.70;;
40755;SDS011;26461;45.630;9.418;2023-10-19T01:11:29;47.63;;;29.17;;
40755;SDS011;26461;45.630;9.418;2023-10-19T01:14:35;45.00;;;29.73;;
40755;SDS011;26461;45.630;9.418;2023-10-19T01:17:47;45.60;;;31.48;;
40755;SDS011;26461;45.630;9.418;2023-10-19T01:20:58;43.80;;;28.67;;
40755;SDS011;26461;45.630;9.418;2023-10-19T01:24:11;42.28;;;28.60;;
40755;SDS011;26461;45.630;9.418;2023-10-19T01:27:21;41.63;;;29.23;;
40755;SDS011;26461;45.630;9.418;2023-10-19T01:30:28;43.55;;;32.80;;
40755;SDS011;26461;45.630;9.418;2023-10-19T01:33:39;42.45;;;31.00;;
40755;SDS011;26461;45.630;9.418;2023-10-19T01:36:46;44.38;;;30.92;;
40755;SDS011;26461;45.630;9.418;2023-10-19T01:40:01;41.63;;;26.88;;
40755;SDS011;26461;45.630;9.418;2023-10-19T01:43:09;40.20;;;28.65;;
40755;SDS011;26461;45.630;9.418;2023-10-19T01:46:16;44.58;;;28.95;;
40755;SDS011;26461;45.630;9.418;2023-10-19T01:49:29;52.17;;;33.33;;
40755;SDS011;26461;45.630;9.418;2023-10-19T01:52:35;40.15;;;28.77;;
40755;SDS011;26461;45.630;9.418;2023-10-19T01:55:44;39.70;;;28.50;;
40755;SDS011;26461;45.630;9.418;2023-10-19T01:58:52;40.25;;;27.98;;
40755;SDS011;26461;45.630;9.418;2023-10-19T02:01:58;52.40;;;32.65;;
40755;SDS011;26461;45.630;9.418;2023-10-19T02:05:09;46.10;;;30.92;;
40755;SDS011;26461;45.630;9.418;2023-10-19T02:08:28;45.25;;;31.23;;
40755;SDS011;26461;45.630;9.418;2023-10-19T02:11:39;41.17;;;27.38;;
40755;SDS011;26461;45.630;9.418;2023-10-19T02:14:47;46.80;;;30.00;;
40755;SDS011;26461;45.630;9.418;2023-10-19T02:17:53;38.83;;;29.15;;
40755;SDS011;26461;45.630;9.418;2023-10-19T02:21:05;46.70;;;30.40;;
40755;SDS011;26461;45.630;9.418;2023-10-19T02:24:15;45.35;;;29.70;;
40755;SDS011;26461;45.630;9.418;2023-10-19T02:27:20;42.45;;;30.98;;
40755;SDS011;26461;45.630;9.418;2023-10-19T02:30:32;46.05;;;30.25;;
40755;SDS011;26461;45.630;9.418;2023-10-19T02:33:42;48.13;;;32.53;;
40755;SDS011;26461;45.630;9.418;2023-10-19T02:36:51;50.90;;;31.80;;
40755;SDS011;26461;45.630;9.418;2023-10-19T02:39:56;47.83;;;31.55;;
40755;SDS011;26461;45.630;9.418;2023-10-19T02:43:02;40.28;;;27.50;;
40755;SDS011;26461;45.630;9.418;2023-10-19T02:46:12;48.03;;;31.17;;
40755;SDS011;26461;45.630;9.418;2023-10-19T02:49:23;47.10;;;32.03;;
40755;SDS011;26461;45.630;9.418;2023-10-19T02:52:30;41.30;;;28.75;;
40755;SDS011;26461;45.630;9.418;2023-10-19T02:55:36;40.50;;;30.25;;
40755;SDS011;26461;45.630;9.418;2023-10-19T02:58:43;45.78;;;30.50;;
40755;SDS011;26461;45.630;9.418;2023-10-19T03:01:57;45.10;;;28.92;;
40755;SDS011;26461;45.630;9.418;2023-10-19T03:05:28;44.22;;;30.10;;
40755;SDS011;26461;45.630;9.418;2023-10-19T03:08:40;46.35;;;30.33;;
40755;SDS011;26461;45.630;9.418;2023-10-19T03:11:51;40.75;;;28.35;;
40755;SDS011;26461;45.630;9.418;2023-10-19T03:15:04;40.05;;;29.30;;
40755;SDS011;26461;45.630;9.418;2023-10-19T03:18:10;42.55;;;28.17;;
40755;SDS011;26461;45.630;9.418;2023-10-19T03:21:16;39.10;;;29.08;;
40755;SDS011;26461;45.630;9.418;2023-10-19T03:24:29;40.63;;;28.80;;
40755;SDS011;26461;45.630;9.418;2023-10-19T03:27:40;37.08;;;27.45;;
40755;SDS011;26461;45.630;9.418;2023-10-19T03:30:49;41.28;;;27.20;;
40755;SDS011;26461;45.630;9.418;2023-10-19T03:33:59;43.65;;;29.85;;
40755;SDS011;26461;45.630;9.418;2023-10-19T03:37:14;39.22;;;28.70;;
40755;SDS011;26461;45.630;9.418;2023-10-19T03:40:22;36.42;;;27.35;;
40755;SDS011;26461;45.630;9.418;2023-10-19T03:43:36;37.42;;;26.50;;
40755;SDS011;26461;45.630;9.418;2023-10-19T03:46:45;41.42;;;29.13;;
40755;SDS011;26461;45.630;9.418;2023-10-19T03:50:05;41.50;;;28.75;;
40755;SDS011;26461;45.630;9.418;2023-10-19T03:53:12;40.67;;;28.13;;
40755;SDS011;26461;45.630;9.418;2023-10-19T03:56:17;35.60;;;26.17;;
40755;SDS011;26461;45.630;9.418;2023-10-19T03:59:22;40.88;;;27.92;;
40755;SDS011;26461;45.630;9.418;2023-10-19T04:02:34;47.42;;;28.40;;
40755;SDS011;26461;45.630;9.418;2023-10-19T04:05:43;40.05;;;27.17;;
40755;SDS011;26461;45.630;9.418;2023-10-19T04:08:51;39.38;;;27.17;;
40755;SDS011;26461;45.630;9.418;2023-10-19T04:12:02;34.67;;;26.00;;
40755;SDS011;26461;45.630;9.418;2023-10-19T04:15:07;37.95;;;27.02;;
40755;SDS011;26461;45.630;9.418;2023-10-19T04:18:22;33.60;;;24.80;;
40755;SDS011;26461;45.630;9.418;2023-10-19T04:21:35;36.70;;;26.45;;
40755;SDS011;26461;45.630;9.418;2023-10-19T04:24:51;42.22;;;27.63;;
40755;SDS011;26461;45.630;9.418;2023-10-19T04:28:01;37.17;;;28.52;;
40755;SDS011;26461;45.630;9.418;2023-10-19T04:31:11;38.15;;;26.63;;
40755;SDS011;26461;45.630;9.418;2023-10-19T04:34:26;38.28;;;28.13;;
40755;SDS011;26461;45.630;9.418;2023-10-19T04:37:34;35.92;;;26.17;;
40755;SDS011;26461;45.630;9.418;2023-10-19T04:40:39;37.97;;;26.13;;
40755;SDS011;26461;45.630;9.418;2023-10-19T04:43:49;43.85;;;27.65;;
40755;SDS011;26461;45.630;9.418;2023-10-19T04:46:54;35.25;;;25.88;;
40755;SDS011;26461;45.630;9.418;2023-10-19T04:49:59;32.22;;;24.60;;
40755;SDS011;26461;45.630;9.418;2023-10-19T04:53:06;36.65;;;25.75;;
40755;SDS011;26461;45.630;9.418;2023-10-19T04:56:17;35.20;;;25.77;;
40755;SDS011;26461;45.630;9.418;2023-10-19T04:59:22;38.80;;;25.83;;
40755;SDS011;26461;45.630;9.418;2023-10-19T05:02:28;36.70;;;26.63;;
40755;SDS011;26461;45.630;9.418;2023-10-19T05:05:34;36.65;;;25.95;;
40755;SDS011;26461;45.630;9.418;2023-10-19T05:08:40;35.28;;;25.50;;
40755;SDS011;26461;45.630;9.418;2023-10-19T05:11:51;35.90;;;24.30;;
40755;SDS011;26461;45.630;9.418;2023-10-19T05:14:57;41.10;;;25.38;;
40755;SDS011;26461;45.630;9.418;2023-10-19T05:18:03;40.03;;;25.90;;
40755;SDS011;26461;45.630;9.418;2023-10-19T05:21:10;43.13;;;27.70;;
40755;SDS011;26461;45.630;9.418;2023-10-19T05:24:22;38.20;;;26.90;;
40755;SDS011;26461;45.630;9.418;2023-10-19T05:27:27;36.13;;;25.73;;
40755;SDS011;26461;45.630;9.418;2023-10-19T05:30:38;37.25;;;28.27;;
40755;SDS011;26461;45.630;9.418;2023-10-19T05:33:43;45.42;;;29.27;;
40755;SDS011;26461;45.630;9.418;2023-10-19T05:36:53;44.15;;;29.13;;
40755;SDS011;26461;45.630;9.418;2023-10-19T05:40:08;36.50;;;24.95;;
40755;SDS011;26461;45.630;9.418;2023-10-19T05:43:22;46.67;;;30.05;;
40755;SDS011;26461;45.630;9.418;2023-10-19T05:46:28;39.92;;;26.88;;
40755;SDS011;26461;45.630;9.418;2023-10-19T05:49:33;34.78;;;25.38;;
40755;SDS011;26461;45.630;9.418;2023-10-19T05:52:44;38.50;;;27.98;;
40755;SDS011;26461;45.630;9.418;2023-10-19T05:55:57;36.22;;;26.15;;
40755;SDS011;26461;45.630;9.418;2023-10-19T05:59:03;42.75;;;28.50;;
40755;SDS011;26461;45.630;9.418;2023-10-19T06:02:09;39.50;;;27.08;;
40755;SDS011;26461;45.630;9.418;2023-10-19T06:05:15;42.15;;;30.30;;
40755;SDS011;26461;45.630;9.418;2023-10-19T06:08:22;34.50;;;26.95;;
40755;SDS011;26461;45.630;9.418;2023-10-19T06:11:30;37.40;;;24.65;;
40755;SDS011;26461;45.630;9.418;2023-10-19T06:14:39;39.90;;;25.65;;
40755;SDS011;26461;45.630;9.418;2023-10-19T06:17:50;36.20;;;25.67;;
40755;SDS011;26461;45.630;9.418;2023-10-19T06:20:55;38.08;;;25.27;;
40755;SDS011;26461;45.630;9.418;2023-10-19T06:24:06;35.72;;;24.63;;
40755;SDS011;26461;45.630;9.418;2023-10-19T06:27:23;34.00;;;23.60;;
40755;SDS011;26461;45.630;9.418;2023-10-19T06:30:33;35.17;;;24.45;;
40755;SDS011;26461;45.630;9.418;2023-10-19T06:33:39;36.25;;;25.23;;
40755;SDS011;26461;45.630;9.418;2023-10-19T06:36:47;36.83;;;23.52;;
40755;SDS011;26461;45.630;9.418;2023-10-19T06:39:52;37.47;;;25.98;;
40755;SDS011;26461;45.630;9.418;2023-10-19T06:42:58;36.60;;;25.60;;
40755;SDS011;26461;45.630;9.418;2023-10-19T06:46:03;33.47;;;23.63;;
40755;SDS011;26461;45.630;9.418;2023-10-19T06:49:14;28.95;;;21.98;;
40755;SDS011;26461;45.630;9.418;2023-10-19T06:52:20;31.27;;;22.08;;
40755;SDS011;26461;45.630;9.418;2023-10-19T06:55:26;32.83;;;24.38;;
40755;SDS011;26461;45.630;9.418;2023-10-19T06:58:37;32.58;;;21.75;;
40755;SDS011;26461;45.630;9.418;2023-10-19T07:01:48;33.92;;;22.75;;
40755;SDS011;26461;45.630;9.418;2023-10-19T07:04:53;30.85;;;21.77;;
40755;SDS011;26461;45.630;9.418;2023-10-19T07:08:07;33.58;;;22.98;;
40755;SDS011;26461;45.630;9.418;2023-10-19T07:11:18;30.42;;;21.63;;
40755;SDS011;26461;45.630;9.418;2023-10-19T07:14:23;31.15;;;20.65;;
40755;SDS011;26461;45.630;9.418;2023-10-19T07:17:34;31.42;;;21.02;;
40755;SDS011;26461;45.630;9.418;2023-10-19T07:20:45;33.45;;;23.90;;
40755;SDS011;26461;45.630;9.418;2023-10-19T07:23:53;27.13;;;21.60;;
40755;SDS011;26461;45.630;9.418;2023-10-19T07:27:00;32.95;;;21.63;;
40755;SDS011;26461;45.630;9.418;2023-10-19T07:30:12;30.20;;;20.98;;
40755;SDS011;26461;45.630;9.418;2023-10-19T07:33:25;28.75;;;21.38;;
40755;SDS011;26461;45.630;9.418;2023-10-19T07:36:36;29.33;;;21.73;;
40755;SDS011;26461;45.630;9.418;2023-10-19T07:39:46;36.63;;;23.85;;
40755;SDS011;26461;45.630;9.418;2023-10-19T07:42:57;31.42;;;22.08;;
40755;SDS011;26461;45.630;9.418;2023-10-19T07:46:02;28.63;;;21.30;;
40755;SDS011;26461;45.630;9.418;2023-10-19T07:49:13;34.10;;;23.02;;
40755;SDS011;26461;45.630;9.418;2023-10-19T07:52:24;28.35;;;21.65;;
40755;SDS011;26461;45.630;9.418;2023-10-19T07:55:34;30.20;;;22.80;;
40755;SDS011;26461;45.630;9.418;2023-10-19T07:58:45;28.77;;;18.10;;
40755;SDS011;26461;45.630;9.418;2023-10-19T08:01:55;25.58;;;18.08;;
40755;SDS011;26461;45.630;9.418;2023-10-19T08:05:05;29.95;;;20.65;;
40755;SDS011;26461;45.630;9.418;2023-10-19T08:08:11;30.48;;;20.88;;
40755;SDS011;26461;45.630;9.418;2023-10-19T08:11:22;24.63;;;20.00;;
40755;SDS011;26461;45.630;9.418;2023-10-19T08:14:27;26.88;;;19.27;;
40755;SDS011;26461;45.630;9.418;2023-10-19T08:17:38;25.80;;;19.35;;
40755;SDS011;26461;45.630;9.418;2023-10-19T08:20:49;28.88;;;18.60;;
40755;SDS011;26461;45.630;9.418;2023-10-19T08:23:55;28.17;;;19.85;;
40755;SDS011;26461;45.630;9.418;2023-10-19T08:27:05;28.17;;;18.58;;
40755;SDS011;26461;45.630;9.418;2023-10-19T08:30:20;25.27;;;19.23;;
40755;SDS011;26461;45.630;9.418;2023-10-19T08:33:31;24.52;;;18.98;;
40755;SDS011;26461;45.630;9.418;2023-10-19T08:36:43;24.20;;;17.95;;
40755;SDS011;26461;45.630;9.418;2023-10-19T08:39:50;24.60;;;18.95;;
40755;SDS011;26461;45.630;9.418;2023-10-19T08:43:01;24.05;;;17.17;;
40755;SDS011;26461;45.630;9.418;2023-10-19T08:46:10;21.88;;;16.48;;
40755;SDS011;26461;45.630;9.418;2023-10-19T08:49:17;22.10;;;15.95;;
40755;SDS011;26461;45.630;9.418;2023-10-19T08:52:29;24.70;;;17.85;;
40755;SDS011;26461;45.630;9.418;2023-10-19T08:55:39;24.77;;;18.02;;
40755;SDS011;26461;45.630;9.418;2023-10-19T08:58:50;25.52;;;18.08;;
40755;SDS011;26461;45.630;9.418;2023-10-19T09:02:03;23.35;;;17.77;;
40755;SDS011;26461;45.630;9.418;2023-10-19T09:05:17;22.77;;;17.42;;
40755;SDS011;26461;45.630;9.418;2023-10-19T09:08:37;21.17;;;15.77;;
40755;SDS011;26461;45.630;9.418;2023-10-19T09:11:50;18.42;;;14.80;;
40755;SDS011;26461;45.630;9.418;2023-10-19T09:15:02;23.77;;;16.00;;
40755;SDS011;26461;45.630;9.418;2023-10-19T09:18:39;18.30;;;14.25;;
40755;SDS011;26461;45.630;9.418;2023-10-19T09:21:45;19.95;;;16.00;;
40755;SDS011;26461;45.630;9.418;2023-10-19T09:24:56;18.45;;;15.30;;
40755;SDS011;26461;45.630;9.418;2023-10-19T09:28:07;21.15;;;14.73;;
40755;SDS011;26461;45.630;9.418;2023-10-19T09:31:15;18.90;;;14.27;;
40755;SDS011;26461;45.630;9.418;2023-10-19T09:34:26;20.02;;;14.68;;
40755;SDS011;26461;45.630;9.418;2023-10-19T09:37:44;20.92;;;14.40;;
40755;SDS011;26461;45.630;9.418;2023-10-19T09:40:50;18.35;;;14.23;;
40755;SDS011;26461;45.630;9.418;2023-10-19T09:44:03;20.45;;;15.23;;
40755;SDS011;26461;45.630;9.418;2023-10-19T09:47:22;16.00;;;14.00;;
40755;SDS011;26461;45.630;9.418;2023-10-19T09:50:54;19.10;;;14.70;;
40755;SDS011;26461;45.630;9.418;2023-10-19T09:58:04;21.95;;;15.38;;
40755;SDS011;26461;45.630;9.418;2023-10-19T10:01:17;18.27;;;14.98;;
40755;SDS011;26461;45.630;9.418;2023-10-19T10:04:32;19.50;;;14.75;;
40755;SDS011;26461;45.630;9.418;2023-10-19T10:07:43;18.70;;;13.55;;
40755;SDS011;26461;45.630;9.418;2023-10-19T10:10:53;21.55;;;15.55;;
40755;SDS011;26461;45.630;9.418;2023-10-19T10:14:04;17.02;;;13.77;;
40755;SDS011;26461;45.630;9.418;2023-10-19T10:17:27;18.02;;;13.15;;
40755;SDS011;26461;45.630;9.418;2023-10-19T10:20:33;19.50;;;14.50;;
40755;SDS011;26461;45.630;9.418;2023-10-19T10:24:00;19.85;;;14.27;;
40755;SDS011;26461;45.630;9.418;2023-10-19T10:27:08;18.33;;;13.50;;
40755;SDS011;26461;45.630;9.418;2023-10-19T10:30:19;20.08;;;14.25;;
40755;SDS011;26461;45.630;9.418;2023-10-19T10:33:42;20.85;;;14.32;;
40755;SDS011;26461;45.630;9.418;2023-10-19T10:36:59;19.95;;;15.20;;
40755;SDS011;26461;45.630;9.418;2023-10-19T10:40:15;15.80;;;12.57;;
40755;SDS011;26461;45.630;9.418;2023-10-19T10:43:21;19.92;;;13.30;;
40755;SDS011;26461;45.630;9.418;2023-10-19T10:46:31;16.35;;;13.07;;
40755;SDS011;26461;45.630;9.418;2023-10-19T10:49:49;16.92;;;12.95;;
40755;SDS011;26461;45.630;9.418;2023-10-19T10:53:00;19.65;;;13.93;;
40755;SDS011;26461;45.630;9.418;2023-10-19T10:56:10;15.20;;;12.30;;
40755;SDS011;26461;45.630;9.418;2023-10-19T10:59:21;16.80;;;12.30;;
40755;SDS011;26461;45.630;9.418;2023-10-19T11:02:27;15.52;;;12.27;;
40755;SDS011;26461;45.630;9.418;2023-10-19T11:05:37;18.00;;;11.57;;
40755;SDS011;26461;45.630;9.418;2023-10-19T11:08:48;18.23;;;13.98;;
40755;SDS011;26461;45.630;9.418;2023-10-19T11:11:58;12.65;;;11.80;;
40755;SDS011;26461;45.630;9.418;2023-10-19T11:15:09;16.77;;;12.35;;
40755;SDS011;26461;45.630;9.418;2023-10-19T11:18:29;17.23;;;13.05;;
40755;SDS011;26461;45.630;9.418;2023-10-19T11:21:51;15.63;;;10.75;;
40755;SDS011;26461;45.630;9.418;2023-10-19T11:25:00;17.17;;;11.60;;
40755;SDS011;26461;45.630;9.418;2023-10-19T11:28:28;16.83;;;12.50;;
40755;SDS011;26461;45.630;9.418;2023-10-19T11:31:40;14.63;;;11.38;;
40755;SDS011;26461;45.630;9.418;2023-10-19T11:34:54;13.45;;;10.95;;
40755;SDS011;26461;45.630;9.418;2023-10-19T11:38:06;14.00;;;10.85;;
40755;SDS011;26461;45.630;9.418;2023-10-19T11:41:17;15.05;;;11.43;;
40755;SDS011;26461;45.630;9.418;2023-10-19T11:44:23;14.02;;;11.75;;
40755;SDS011;26461;45.630;9.418;2023-10-19T11:47:33;14.80;;;10.18;;
40755;SDS011;26461;45.630;9.418;2023-10-19T11:50:39;13.38;;;10.52;;
40755;SDS011;26461;45.630;9.418;2023-10-19T11:53:44;12.15;;;9.75;;
40755;SDS011;26461;45.630;9.418;2023-10-19T11:56:49;11.30;;;9.05;;
40755;SDS011;26461;45.630;9.418;2023-10-19T12:00:01;15.10;;;10.70;;
40755;SDS011;26461;45.630;9.418;2023-10-19T12:03:18;15.48;;;10.18;;
40755;SDS011;26461;45.630;9.418;2023-10-19T12:06:29;12.93;;;9.27;;
40755;SDS011;26461;45.630;9.418;2023-10-19T12:09:34;13.90;;;9.77;;
40755;SDS011;26461;45.630;9.418;2023-10-19T12:12:40;16.20;;;10.82;;
40755;SDS011;26461;45.630;9.418;2023-10-19T12:15:50;11.85;;;10.35;;
40755;SDS011;26461;45.630;9.418;2023-10-19T12:35:30;10.85;;;8.27;;
40755;SDS011;26461;45.630;9.418;2023-10-19T12:38:54;11.65;;;8.10;;
40755;SDS011;26461;45.630;9.418;2023-10-19T12:42:05;11.23;;;7.60;;
40755;SDS011;26461;45.630;9.418;2023-10-19T12:45:17;9.93;;;8.30;;
40755;SDS011;26461;45.630;9.418;2023-10-19T12:48:29;12.07;;;8.32;;
40755;SDS011;26461;45.630;9.418;2023-10-19T12:51:38;10.10;;;8.07;;
40755;SDS011;26461;45.630;9.418;2023-10-19T12:54:51;13.20;;;8.38;;
40755;SDS011;26461;45.630;9.418;2023-10-19T12:58:08;10.88;;;8.68;;
40755;SDS011;26461;45.630;9.418;2023-10-19T13:01:19;15.75;;;10.07;;
40755;SDS011;26461;45.630;9.418;2023-10-19T13:04:30;14.80;;;9.73;;
40755;SDS011;26461;45.630;9.418;2023-10-19T13:07:41;15.45;;;11.50;;
40755;SDS011;26461;45.630;9.418;2023-10-19T13:10:51;11.25;;;10.00;;
40755;SDS011;26461;45.630;9.418;2023-10-19T13:14:02;12.95;;;10.00;;
40755;SDS011;26461;45.630;9.418;2023-10-19T13:17:15;10.73;;;8.18;;
40755;SDS011;26461;45.630;9.418;2023-10-19T13:20:26;11.25;;;9.02;;
40755;SDS011;26461;45.630;9.418;2023-10-19T13:23:38;10.35;;;8.25;;
40755;SDS011;26461;45.630;9.418;2023-10-19T13:26:48;9.75;;;7.40;;
40755;SDS011;26461;45.630;9.418;2023-10-19T13:29:59;13.05;;;8.32;;
40755;SDS011;26461;45.630;9.418;2023-10-19T13:33:05;10.90;;;8.27;;
40755;SDS011;26461;45.630;9.418;2023-10-19T13:36:16;12.18;;;9.55;;
40755;SDS011;26461;45.630;9.418;2023-10-19T13:39:22;8.95;;;8.15;;
40755;SDS011;26461;45.630;9.418;2023-10-19T13:42:35;10.10;;;7.93;;
40755;SDS011;26461;45.630;9.418;2023-10-19T13:46:04;10.40;;;8.50;;
40755;SDS011;26461;45.630;9.418;2023-10-19T13:49:15;10.98;;;8.32;;
40755;SDS011;26461;45.630;9.418;2023-10-19T13:52:28;11.55;;;7.57;;
40755;SDS011;26461;45.630;9.418;2023-10-19T13:55:39;10.40;;;8.20;;
40755;SDS011;26461;45.630;9.418;2023-10-19T13:58:51;8.70;;;7.45;;
40755;SDS011;26461;45.630;9.418;2023-10-19T14:01:57;10.55;;;7.70;;
40755;SDS011;26461;45.630;9.418;2023-10-19T14:05:09;8.32;;;7.80;;
40755;SDS011;26461;45.630;9.418;2023-10-19T14:08:15;9.38;;;8.55;;
40755;SDS011;26461;45.630;9.418;2023-10-19T14:11:27;10.23;;;8.48;;
40755;SDS011;26461;45.630;9.418;2023-10-19T14:14:32;9.50;;;8.38;;
40755;SDS011;26461;45.630;9.418;2023-10-19T14:17:43;10.10;;;7.88;;
40755;SDS011;26461;45.630;9.418;2023-10-19T14:20:56;11.70;;;8.02;;
40755;SDS011;26461;45.630;9.418;2023-10-19T14:24:07;9.35;;;8.38;;
40755;SDS011;26461;45.630;9.418;2023-10-19T14:27:18;10.10;;;7.70;;
40755;SDS011;26461;45.630;9.418;2023-10-19T14:30:28;12.02;;;9.23;;
40755;SDS011;26461;45.630;9.418;2023-10-19T14:33:33;11.20;;;7.85;;
40755;SDS011;26461;45.630;9.418;2023-10-19T14:36:45;13.15;;;7.75;;
40755;SDS011;26461;45.630;9.418;2023-10-19T14:39:56;10.00;;;7.90;;
40755;SDS011;26461;45.630;9.418;2023-10-19T14:43:06;12.52;;;8.95;;
40755;SDS011;26461;45.630;9.418;2023-10-19T14:46:16;10.43;;;8.48;;
40755;SDS011;26461;45.630;9.418;2023-10-19T14:49:27;11.18;;;8.65;;
40755;SDS011;26461;45.630;9.418;2023-10-19T14:52:37;11.35;;;8.95;;
40755;SDS011;26461;45.630;9.418;2023-10-19T14:55:48;11.95;;;8.93;;
40755;SDS011;26461;45.630;9.418;2023-10-19T14:58:59;12.73;;;9.35;;
40755;SDS011;26461;45.630;9.418;2023-10-19T15:02:09;13.23;;;9.15;;
40755;SDS011;26461;45.630;9.418;2023-10-19T15:05:22;11.70;;;8.82;;
40755;SDS011;26461;45.630;9.418;2023-10-19T15:08:31;10.85;;;8.65;;
40755;SDS011;26461;45.630;9.418;2023-10-19T15:11:36;13.40;;;10.70;;
40755;SDS011;26461;45.630;9.418;2023-10-19T15:14:47;11.85;;;8.20;;
40755;SDS011;26461;45.630;9.418;2023-10-19T15:17:57;14.68;;;10.82;;
40755;SDS011;26461;45.630;9.418;2023-10-19T15:21:12;11.63;;;8.25;;
40755;SDS011;26461;45.630;9.418;2023-10-19T15:24:23;12.50;;;9.50;;
40755;SDS011;26461;45.630;9.418;2023-10-19T15:27:30;16.92;;;9.63;;
40755;SDS011;26461;45.630;9.418;2023-10-19T15:30:40;11.63;;;9.85;;
40755;SDS011;26461;45.630;9.418;2023-10-19T15:33:51;14.27;;;10.30;;
40755;SDS011;26461;45.630;9.418;2023-10-19T15:37:02;13.57;;;11.07;;
40755;SDS011;26461;45.630;9.418;2023-10-19T15:40:13;12.07;;;9.95;;
40755;SDS011;26461;45.630;9.418;2023-10-19T15:43:20;12.30;;;9.88;;
40755;SDS011;26461;45.630;9.418;2023-10-19T15:46:30;13.50;;;9.73;;
40755;SDS011;26461;45.630;9.418;2023-10-19T15:49:48;12.98;;;10.57;;
40755;SDS011;26461;45.630;9.418;2023-10-19T15:53:06;14.20;;;10.30;;
40755;SDS011;26461;45.630;9.418;2023-10-19T15:56:17;14.70;;;11.05;;
40755;SDS011;26461;45.630;9.418;2023-10-19T15:59:27;12.38;;;9.65;;
40755;SDS011;26461;45.630;9.418;2023-10-19T16:02:37;13.40;;;8.95;;
40755;SDS011;26461;45.630;9.418;2023-10-19T16:05:42;13.73;;;9.18;;
40755;SDS011;26461;45.630;9.418;2023-10-19T16:08:52;14.02;;;11.10;;
40755;SDS011;26461;45.630;9.418;2023-10-19T16:12:03;11.88;;;8.65;;
40755;SDS011;26461;45.630;9.418;2023-10-19T16:15:14;12.80;;;9.15;;
40755;SDS011;26461;45.630;9.418;2023-10-19T16:18:26;13.05;;;9.63;;
40755;SDS011;26461;45.630;9.418;2023-10-19T16:21:36;12.05;;;9.07;;
40755;SDS011;26461;45.630;9.418;2023-10-19T16:24:47;12.63;;;9.35;;
40755;SDS011;26461;45.630;9.418;2023-10-19T16:27:58;17.15;;;10.82;;
40755;SDS011;26461;45.630;9.418;2023-10-19T16:31:08;15.27;;;11.63;;
40755;SDS011;26461;45.630;9.418;2023-10-19T16:34:17;12.32;;;9.50;;
40755;SDS011;26461;45.630;9.418;2023-10-19T16:37:27;15.35;;;10.45;;
40755;SDS011;26461;45.630;9.418;2023-10-19T16:40:39;12.77;;;9.52;;
40755;SDS011;26461;45.630;9.418;2023-10-19T16:43:45;13.43;;;10.25;;
40755;SDS011;26461;45.630;9.418;2023-10-19T16:46:56;15.63;;;10.60;;
40755;SDS011;26461;45.630;9.418;2023-10-19T16:50:06;13.98;;;10.38;;
40755;SDS011;26461;45.630;9.418;2023-10-19T16:53:23;13.88;;;10.80;;
40755;SDS011;26461;45.630;9.418;2023-10-19T16:56:33;14.52;;;11.68;;
40755;SDS011;26461;45.630;9.418;2023-10-19T16:59:45;19.17;;;13.68;;
40755;SDS011;26461;45.630;9.418;2023-10-19T17:02:55;12.98;;;11.43;;
40755;SDS011;26461;45.630;9.418;2023-10-19T17:06:06;14.43;;;12.38;;
40755;SDS011;26461;45.630;9.418;2023-10-19T17:09:21;17.77;;;12.27;;
40755;SDS011;26461;45.630;9.418;2023-10-19T17:12:32;14.95;;;11.40;;
40755;SDS011;26461;45.630;9.418;2023-10-19T17:15:44;17.92;;;11.23;;
40755;SDS011;26461;45.630;9.418;2023-10-19T17:18:54;12.27;;;9.98;;
40755;SDS011;26461;45.630;9.418;2023-10-19T17:22:04;16.80;;;11.07;;
40755;SDS011;26461;45.630;9.418;2023-10-19T17:25:15;16.08;;;11.20;;
40755;SDS011;26461;45.630;9.418;2023-10-19T17:28:25;11.00;;;9.85;;
40755;SDS011;26461;45.630;9.418;2023-10-19T17:31:36;13.82;;;11.95;;
40755;SDS011;26461;45.630;9.418;2023-10-19T17:34:42;12.05;;;10.80;;
40755;SDS011;26461;45.630;9.418;2023-10-19T17:37:52;13.70;;;10.98;;
40755;SDS011;26461;45.630;9.418;2023-10-19T17:40:58;16.77;;;11.85;;
40755;SDS011;26461;45.630;9.418;2023-10-19T17:44:04;13.52;;;11.52;;
40755;SDS011;26461;45.630;9.418;2023-10-19T17:47:14;15.68;;;11.20;;
40755;SDS011;26461;45.630;9.418;2023-10-19T17:50:25;14.23;;;10.98;;
40755;SDS011;26461;45.630;9.418;2023-10-19T17:53:35;14.30;;;10.70;;
40755;SDS011;26461;45.630;9.418;2023-10-19T17:56:47;15.35;;;10.70;;
40755;SDS011;26461;45.630;9.418;2023-10-19T17:59:57;13.10;;;11.13;;
40755;SDS011;26461;45.630;9.418;2023-10-19T18:03:03;17.70;;;12.05;;
40755;SDS011;26461;45.630;9.418;2023-10-19T18:06:18;20.60;;;11.00;;
40755;SDS011;26461;45.630;9.418;2023-10-19T18:09:28;14.55;;;10.90;;
40755;SDS011;26461;45.630;9.418;2023-10-19T18:12:39;15.23;;;10.48;;
40755;SDS011;26461;45.630;9.418;2023-10-19T18:15:50;15.43;;;11.50;;
40755;SDS011;26461;45.630;9.418;2023-10-19T18:19:04;15.93;;;11.63;;
40755;SDS011;26461;45.630;9.418;2023-10-19T18:22:09;15.48;;;11.90;;
40755;SDS011;26461;45.630;9.418;2023-10-19T18:25:20;12.45;;;10.23;;
40755;SDS011;26461;45.630;9.418;2023-10-19T18:28:33;14.77;;;12.32;;
40755;SDS011;26461;45.630;9.418;2023-10-19T18:31:38;15.02;;;12.15;;
40755;SDS011;26461;45.630;9.418;2023-10-19T18:34:49;14.15;;;11.73;;
40755;SDS011;26461;45.630;9.418;2023-10-19T18:38:03;12.98;;;10.43;;
40755;SDS011;26461;45.630;9.418;2023-10-19T18:41:10;15.65;;;12.50;;
40755;SDS011;26461;45.630;9.418;2023-10-19T18:44:16;14.23;;;10.82;;
40755;SDS011;26461;45.630;9.418;2023-10-19T18:47:22;13.73;;;11.65;;
40755;SDS011;26461;45.630;9.418;2023-10-19T18:50:32;16.08;;;12.25;;
40755;SDS011;26461;45.630;9.418;2023-10-19T18:53:38;16.65;;;12.32;;
40755;SDS011;26461;45.630;9.418;2023-10-19T18:56:49;16.38;;;12.23;;